sensor_id;sensor_type;location;lat;lon;timestamp;pressure;altitude;pressure_sealevel;temperature;humidity
18504;BME280;9381;54.244;10.074;2023-11-21T00:03:59;100629.78;;;10.69;98.52
18504;BME280;9381;54.244;10.074;2023-11-21T00:09:00;100618.88;;;10.82;98.86
18504;BME280;9381;54.244;10.074;2023-11-21T00:14:01;100625.53;;;10.79;99.21
18504;BME280;9381;54.244;10.074;2023-11-21T00:19:01;100614.22;;;10.89;98.78
18504;BME280;9381;54.244;10.074;2023-11-21T00:24:01;100620.34;;;10.78;98.49
18504;BME280;9381;54.244;10.074;2023-11-21T00:29:02;100625.22;;;10.69;98.74
18504;BME280;9381;54.244;10.074;2023-11-21T00:34:03;100636.84;;;10.70;98.03
18504;BME280;9381;54.244;10.074;2023-11-21T00:39:05;100633.72;;;10.73;99.08
18504;BME280;9381;54.244;10.074;2023-11-21T00:44:06;100639.38;;;10.65;97.83
18504;BME280;9381;54.244;10.074;2023-11-21T00:49:06;100648.72;;;10.69;97.76
18504;BME280;9381;54.244;10.074;2023-11-21T00:54:07;100650.75;;;10.73;98.29
18504;BME280;9381;54.244;10.074;2023-11-21T00:59:08;100648.91;;;10.74;97.13
18504;BME280;9381;54.244;10.074;2023-11-21T01:04:08;100663.47;;;10.73;97.25
18504;BME280;9381;54.244;10.074;2023-11-21T01:09:08;100670.56;;;10.67;97.58
18504;BME280;9381;54.244;10.074;2023-11-21T01:14:09;100683.06;;;10.68;97.50
18504;BME280;9381;54.244;10.074;2023-11-21T01:19:10;100692.84;;;10.63;97.77
18504;BME280;9381;54.244;10.074;2023-11-21T01:24:10;100702.66;;;10.57;98.81
18504;BME280;9381;54.244;10.074;2023-11-21T01:29:11;100714.28;;;10.64;98.81
18504;BME280;9381;54.244;10.074;2023-11-21T01:34:11;100720.94;;;10.62;98.93
18504;BME280;9381;54.244;10.074;2023-11-21T01:39:11;100718.22;;;10.68;99.14
18504;BME280;9381;54.244;10.074;2023-11-21T01:44:15;100713.03;;;10.67;99.12
18504;BME280;9381;54.244;10.074;2023-11-21T01:49:17;100727.00;;;10.64;99.31
18504;BME280;9381;54.244;10.074;2023-11-21T01:54:18;100732.81;;;10.61;99.72
18504;BME280;9381;54.244;10.074;2023-11-21T01:59:21;100738.47;;;10.53;100.00
18504;BME280;9381;54.244;10.074;2023-11-21T02:04:21;100740.75;;;10.56;100.00
18504;BME280;9381;54.244;10.074;2023-11-21T02:09:26;100741.81;;;10.55;100.00
18504;BME280;9381;54.244;10.074;2023-11-21T02:14:27;100758.81;;;10.62;100.00
18504;BME280;9381;54.244;10.074;2023-11-21T02:19:28;100765.28;;;10.61;100.00
18504;BME280;9381;54.244;10.074;2023-11-21T02:24:29;100774.63;;;10.65;100.00
18504;BME280;9381;54.244;10.074;2023-11-21T02:29:30;100779.22;;;10.58;100.00
18504;BME280;9381;54.244;10.074;2023-11-21T02:34:30;100785.31;;;10.47;100.00
18504;BME280;9381;54.244;10.074;2023-11-21T02:39:31;100778.88;;;10.48;100.00
18504;BME280;9381;54.244;10.074;2023-11-21T02:44:31;100786.59;;;10.38;100.00
18504;BME280;9381;54.244;10.074;2023-11-21T02:49:32;100786.16;;;10.41;100.00
18504;BME280;9381;54.244;10.074;2023-11-21T02:54:34;100794.69;;;10.44;100.00
18504;BME280;9381;54.244;10.074;2023-11-21T02:59:36;100800.50;;;10.48;100.00
18504;BME280;9381;54.244;10.074;2023-11-21T03:04:36;100802.78;;;10.44;100.00
18504;BME280;9381;54.244;10.074;2023-11-21T03:09:37;100815.06;;;10.40;100.00
18504;BME280;9381;54.244;10.074;2023-11-21T03:14:37;100824.25;;;10.33;100.00
18504;BME280;9381;54.244;10.074;2023-11-21T03:19:38;100829.66;;;10.33;100.00
18504;BME280;9381;54.244;10.074;2023-11-21T03:24:38;100832.78;;;10.30;100.00
18504;BME280;9381;54.244;10.074;2023-11-21T03:29:38;100842.34;;;10.26;100.00
18504;BME280;9381;54.244;10.074;2023-11-21T03:34:56;100850.06;;;10.16;100.00
18504;BME280;9381;54.244;10.074;2023-11-21T03:39:57;100860.28;;;10.14;100.00
18504;BME280;9381;54.244;10.074;2023-11-21T03:44:58;100872.56;;;10.10;100.00
18504;BME280;9381;54.244;10.074;2023-11-21T03:49:58;100862.97;;;10.14;100.00
18504;BME280;9381;54.244;10.074;2023-11-21T03:54:58;100868.56;;;10.12;100.00
18504;BME280;9381;54.244;10.074;2023-11-21T03:59:59;100869.84;;;10.03;100.00
18504;BME280;9381;54.244;10.074;2023-11-21T04:04:59;100881.50;;;10.04;100.00
18504;BME280;9381;54.244;10.074;2023-11-21T04:09:59;100882.94;;;10.00;100.00
18504;BME280;9381;54.244;10.074;2023-11-21T04:15:00;100890.63;;;9.96;100.00
18504;BME280;9381;54.244;10.074;2023-11-21T04:20:00;100899.16;;;10.06;100.00
18504;BME280;9381;54.244;10.074;2023-11-21T04:25:01;100905.00;;;10.10;100.00
18504;BME280;9381;54.244;10.074;2023-11-21T04:30:01;100907.66;;;10.23;100.00
18504;BME280;9381;54.244;10.074;2023-11-21T04:35:01;100912.03;;;10.24;100.00
18504;BME280;9381;54.244;10.074;2023-11-21T04:40:02;100917.00;;;10.27;100.00
18504;BME280;9381;54.244;10.074;2023-11-21T04:45:07;100916.59;;;10.30;100.00
18504;BME280;9381;54.244;10.074;2023-11-21T04:50:11;100932.59;;;10.25;100.00
18504;BME280;9381;54.244;10.074;2023-11-21T04:55:12;100934.72;;;10.16;100.00
18504;BME280;9381;54.244;10.074;2023-11-21T05:00:12;100932.81;;;10.30;100.00
18504;BME280;9381;54.244;10.074;2023-11-21T05:05:13;100933.84;;;10.16;100.00
18504;BME280;9381;54.244;10.074;2023-11-21T05:10:14;100947.59;;;10.14;100.00
18504;BME280;9381;54.244;10.074;2023-11-21T05:15:15;100960.50;;;10.19;100.00
18504;BME280;9381;54.244;10.074;2023-11-21T05:20:16;100964.44;;;10.16;100.00
18504;BME280;9381;54.244;10.074;2023-11-21T05:25:23;100980.22;;;10.13;100.00
18504;BME280;9381;54.244;10.074;2023-11-21T05:30:24;100997.69;;;10.04;100.00
18504;BME280;9381;54.244;10.074;2023-11-21T05:35:24;100996.44;;;10.13;100.00
18504;BME280;9381;54.244;10.074;2023-11-21T05:40:24;101004.13;;;10.03;100.00
18504;BME280;9381;54.244;10.074;2023-11-21T05:45:26;101013.47;;;10.07;100.00
18504;BME280;9381;54.244;10.074;2023-11-21T05:50:26;101017.44;;;10.04;99.70
18504;BME280;9381;54.244;10.074;2023-11-21T05:55:27;101015.97;;;10.02;99.94
18504;BME280;9381;54.244;10.074;2023-11-21T06:00:27;101027.66;;;10.09;99.27
18504;BME280;9381;54.244;10.074;2023-11-21T06:05:28;101032.56;;;9.92;99.03
18504;BME280;9381;54.244;10.074;2023-11-21T06:10:28;101053.75;;;9.89;99.24
18504;BME280;9381;54.244;10.074;2023-11-21T06:15:28;101058.34;;;9.95;99.96
18504;BME280;9381;54.244;10.074;2023-11-21T06:20:29;101069.75;;;9.97;99.17
18504;BME280;9381;54.244;10.074;2023-11-21T06:25:29;101073.75;;;10.01;98.31
18504;BME280;9381;54.244;10.074;2023-11-21T06:30:33;101087.00;;;9.83;99.36
18504;BME280;9381;54.244;10.074;2023-11-21T06:35:33;101085.72;;;9.79;100.00
18504;BME280;9381;54.244;10.074;2023-11-21T06:40:34;101107.56;;;9.77;99.87
18504;BME280;9381;54.244;10.074;2023-11-21T06:45:35;101116.03;;;9.74;99.73
18504;BME280;9381;54.244;10.074;2023-11-21T06:50:35;101137.03;;;9.72;99.73
18504;BME280;9381;54.244;10.074;2023-11-21T06:55:36;101140.94;;;9.70;99.51
18504;BME280;9381;54.244;10.074;2023-11-21T07:00:36;101160.47;;;9.72;99.58
18504;BME280;9381;54.244;10.074;2023-11-21T07:05:38;101159.28;;;9.81;99.32
18504;BME280;9381;54.244;10.074;2023-11-21T07:10:39;101169.28;;;9.87;98.92
18504;BME280;9381;54.244;10.074;2023-11-21T07:15:39;101180.50;;;9.84;99.52
18504;BME280;9381;54.244;10.074;2023-11-21T07:20:39;101178.44;;;9.86;98.81
18504;BME280;9381;54.244;10.074;2023-11-21T07:25:40;101171.81;;;9.88;99.41
18504;BME280;9381;54.244;10.074;2023-11-21T07:30:41;101176.34;;;9.88;99.17
18504;BME280;9381;54.244;10.074;2023-11-21T07:35:43;101186.78;;;9.91;99.04
18504;BME280;9381;54.244;10.074;2023-11-21T07:40:43;101199.00;;;9.87;99.62
18504;BME280;9381;54.244;10.074;2023-11-21T07:45:43;101195.53;;;9.93;98.78
18504;BME280;9381;54.244;10.074;2023-11-21T07:50:44;101206.53;;;9.98;99.33
18504;BME280;9381;54.244;10.074;2023-11-21T07:55:44;101203.03;;;9.97;98.32
18504;BME280;9381;54.244;10.074;2023-11-21T08:00:45;101211.66;;;9.80;98.81
18504;BME280;9381;54.244;10.074;2023-11-21T08:05:45;101219.22;;;9.91;99.48
18504;BME280;9381;54.244;10.074;2023-11-21T08:10:45;101234.38;;;9.92;99.44
18504;BME280;9381;54.244;10.074;2023-11-21T08:15:57;101238.50;;;9.88;98.72
18504;BME280;9381;54.244;10.074;2023-11-21T08:21:03;101247.47;;;9.95;98.82
18504;BME280;9381;54.244;10.074;2023-11-21T08:26:05;101261.13;;;9.80;99.15
18504;BME280;9381;54.244;10.074;2023-11-21T08:31:05;101271.19;;;9.93;97.86
18504;BME280;9381;54.244;10.074;2023-11-21T08:36:09;101279.84;;;9.82;98.32
18504;BME280;9381;54.244;10.074;2023-11-21T08:41:11;101277.38;;;9.87;97.82
18504;BME280;9381;54.244;10.074;2023-11-21T08:46:11;101292.78;;;9.93;97.68
18504;BME280;9381;54.244;10.074;2023-11-21T08:51:11;101293.94;;;10.05;97.76
18504;BME280;9381;54.244;10.074;2023-11-21T08:56:13;101303.78;;;10.19;96.63
18504;BME280;9381;54.244;10.074;2023-11-21T09:01:14;101301.47;;;10.16;96.45
18504;BME280;9381;54.244;10.074;2023-11-21T09:06:14;101309.09;;;10.06;97.39
18504;BME280;9381;54.244;10.074;2023-11-21T09:11:14;101313.72;;;10.12;97.57
18504;BME280;9381;54.244;10.074;2023-11-21T09:16:15;101331.88;;;9.97;97.13
18504;BME280;9381;54.244;10.074;2023-11-21T09:21:16;101334.72;;;9.89;98.14
18504;BME280;9381;54.244;10.074;2023-11-21T09:26:16;101344.75;;;9.95;97.83
18504;BME280;9381;54.244;10.074;2023-11-21T09:31:17;101358.78;;;10.05;97.82
18504;BME280;9381;54.244;10.074;2023-11-21T09:36:17;101357.28;;;10.30;98.15
18504;BME280;9381;54.244;10.074;2023-11-21T09:41:37;101364.19;;;10.39;95.73
18504;BME280;9381;54.244;10.074;2023-11-21T09:46:41;101366.34;;;10.50;94.14
18504;BME280;9381;54.244;10.074;2023-11-21T09:51:43;101371.91;;;10.42;92.17
18504;BME280;9381;54.244;10.074;2023-11-21T09:56:43;101395.47;;;10.48;92.55
18504;BME280;9381;54.244;10.074;2023-11-21T10:01:44;101379.66;;;10.51;92.19
18504;BME280;9381;54.244;10.074;2023-11-21T10:06:45;101387.19;;;10.56;90.52
18504;BME280;9381;54.244;10.074;2023-11-21T10:11:47;101403.44;;;10.62;91.15
18504;BME280;9381;54.244;10.074;2023-11-21T10:16:48;101406.41;;;10.74;91.57
18504;BME280;9381;54.244;10.074;2023-11-21T10:21:49;101420.16;;;10.79;92.33
18504;BME280;9381;54.244;10.074;2023-11-21T10:26:51;101428.84;;;10.68;92.33
18504;BME280;9381;54.244;10.074;2023-11-21T10:31:53;101430.09;;;10.72;90.73
18504;BME280;9381;54.244;10.074;2023-11-21T10:36:57;101427.47;;;10.78;90.71
18504;BME280;9381;54.244;10.074;2023-11-21T10:41:58;101426.41;;;10.73;89.85
18504;BME280;9381;54.244;10.074;2023-11-21T10:47:00;101428.84;;;10.68;91.34
18504;BME280;9381;54.244;10.074;2023-11-21T10:52:01;101439.09;;;10.79;91.09
18504;BME280;9381;54.244;10.074;2023-11-21T10:57:03;101442.03;;;10.77;90.90
18504;BME280;9381;54.244;10.074;2023-11-21T11:02:15;101445.81;;;10.49;91.01
18504;BME280;9381;54.244;10.074;2023-11-21T11:07:25;101451.25;;;10.55;91.19
18504;BME280;9381;54.244;10.074;2023-11-21T11:12:26;101452.28;;;10.27;92.67
18504;BME280;9381;54.244;10.074;2023-11-21T11:17:28;101465.22;;;10.04;95.12
18504;BME280;9381;54.244;10.074;2023-11-21T11:22:42;101461.09;;;9.87;96.56
18504;BME280;9381;54.244;10.074;2023-11-21T11:27:53;101464.06;;;9.92;97.17
18504;BME280;9381;54.244;10.074;2023-11-21T11:38:07;101479.09;;;9.80;96.70
18504;BME280;9381;54.244;10.074;2023-11-21T11:43:08;101481.34;;;9.76;97.02
18504;BME280;9381;54.244;10.074;2023-11-21T11:48:11;101482.09;;;9.64;96.66
18504;BME280;9381;54.244;10.074;2023-11-21T11:53:15;101496.34;;;9.58;96.05
18504;BME280;9381;54.244;10.074;2023-11-21T11:58:15;101502.38;;;9.60;95.41
18504;BME280;9381;54.244;10.074;2023-11-21T12:03:17;101511.00;;;9.70;95.42
18504;BME280;9381;54.244;10.074;2023-11-21T12:08:20;101507.03;;;9.66;96.57
18504;BME280;9381;54.244;10.074;2023-11-21T12:13:21;101511.75;;;9.78;96.53
18504;BME280;9381;54.244;10.074;2023-11-21T12:18:23;101526.91;;;9.79;96.93
18504;BME280;9381;54.244;10.074;2023-11-21T12:23:26;101532.78;;;9.83;97.44
18504;BME280;9381;54.244;10.074;2023-11-21T12:28:26;101537.50;;;9.81;97.16
18504;BME280;9381;54.244;10.074;2023-11-21T12:33:27;101536.13;;;9.85;97.52
18504;BME280;9381;54.244;10.074;2023-11-21T12:38:35;101548.25;;;9.74;95.98
18504;BME280;9381;54.244;10.074;2023-11-21T12:43:35;101558.25;;;9.74;95.75
18504;BME280;9381;54.244;10.074;2023-11-21T12:48:41;101560.19;;;9.65;95.15
18504;BME280;9381;54.244;10.074;2023-11-21T12:53:44;101565.66;;;9.72;94.36
18504;BME280;9381;54.244;10.074;2023-11-21T12:58:45;101563.47;;;9.61;93.16
18504;BME280;9381;54.244;10.074;2023-11-21T13:03:50;101574.16;;;9.69;92.59
18504;BME280;9381;54.244;10.074;2023-11-21T13:08:51;101577.72;;;9.69;92.15
18504;BME280;9381;54.244;10.074;2023-11-21T13:13:52;101591.69;;;9.73;91.66
18504;BME280;9381;54.244;10.074;2023-11-21T13:18:56;101601.94;;;9.63;91.66
18504;BME280;9381;54.244;10.074;2023-11-21T13:23:56;101605.00;;;9.60;90.45
18504;BME280;9381;54.244;10.074;2023-11-21T13:28:57;101607.63;;;9.68;90.08
18504;BME280;9381;54.244;10.074;2023-11-21T13:33:59;101606.97;;;9.66;90.43
18504;BME280;9381;54.244;10.074;2023-11-21T13:39:05;101613.22;;;9.52;89.52
18504;BME280;9381;54.244;10.074;2023-11-21T13:44:07;101616.59;;;9.54;89.17
18504;BME280;9381;54.244;10.074;2023-11-21T13:49:26;101623.09;;;9.59;88.81
18504;BME280;9381;54.244;10.074;2023-11-21T13:54:26;101628.75;;;9.64;88.85
18504;BME280;9381;54.244;10.074;2023-11-21T13:59:27;101631.03;;;9.46;88.74
18504;BME280;9381;54.244;10.074;2023-11-21T14:04:30;101651.41;;;9.49;88.60
18504;BME280;9381;54.244;10.074;2023-11-21T14:09:30;101652.59;;;9.61;88.39
18504;BME280;9381;54.244;10.074;2023-11-21T14:14:36;101657.19;;;9.46;88.94
18504;BME280;9381;54.244;10.074;2023-11-21T14:19:36;101661.09;;;9.43;88.41
18504;BME280;9381;54.244;10.074;2023-11-21T14:24:39;101663.25;;;9.33;88.41
18504;BME280;9381;54.244;10.074;2023-11-21T14:29:45;101679.34;;;9.27;88.57
18504;BME280;9381;54.244;10.074;2023-11-21T14:34:46;101701.94;;;9.11;88.75
18504;BME280;9381;54.244;10.074;2023-11-21T14:39:47;101697.94;;;9.07;88.57
18504;BME280;9381;54.244;10.074;2023-11-21T14:44:49;101711.03;;;8.96;88.19
18504;BME280;9381;54.244;10.074;2023-11-21T14:49:50;101715.88;;;9.00;88.44
18504;BME280;9381;54.244;10.074;2023-11-21T14:54:53;101718.75;;;8.99;87.40
18504;BME280;9381;54.244;10.074;2023-11-21T15:00:14;101743.41;;;8.96;87.79
18504;BME280;9381;54.244;10.074;2023-11-21T15:05:33;101750.25;;;8.84;86.96
18504;BME280;9381;54.244;10.074;2023-11-21T15:10:35;101757.16;;;8.86;88.39
18504;BME280;9381;54.244;10.074;2023-11-21T15:15:53;101764.13;;;8.81;88.25
18504;BME280;9381;54.244;10.074;2023-11-21T15:20:56;101773.94;;;8.74;88.45
18504;BME280;9381;54.244;10.074;2023-11-21T15:25:56;101786.03;;;8.78;87.67
18504;BME280;9381;54.244;10.074;2023-11-21T15:30:58;101806.91;;;8.84;86.98
18504;BME280;9381;54.244;10.074;2023-11-21T15:35:58;101803.28;;;8.69;86.11
18504;BME280;9381;54.244;10.074;2023-11-21T15:40:59;101809.41;;;8.63;85.90
18504;BME280;9381;54.244;10.074;2023-11-21T15:45:59;101819.00;;;8.65;86.63
18504;BME280;9381;54.244;10.074;2023-11-21T15:51:01;101820.63;;;8.44;86.54
18504;BME280;9381;54.244;10.074;2023-11-21T15:56:04;101829.47;;;8.30;87.58
18504;BME280;9381;54.244;10.074;2023-11-21T16:01:04;101831.00;;;8.25;87.35
18504;BME280;9381;54.244;10.074;2023-11-21T16:06:05;101839.28;;;8.07;87.15
18504;BME280;9381;54.244;10.074;2023-11-21T16:11:05;101849.75;;;8.02;87.75
18504;BME280;9381;54.244;10.074;2023-11-21T16:16:06;101860.53;;;8.02;87.76
18504;BME280;9381;54.244;10.074;2023-11-21T16:21:11;101868.25;;;8.13;86.83
18504;BME280;9381;54.244;10.074;2023-11-21T16:26:11;101871.28;;;8.10;87.25
18504;BME280;9381;54.244;10.074;2023-11-21T16:31:12;101876.03;;;8.00;87.40
18504;BME280;9381;54.244;10.074;2023-11-21T16:36:12;101883.59;;;8.05;87.55
18504;BME280;9381;54.244;10.074;2023-11-21T16:41:12;101904.81;;;8.00;87.17
18504;BME280;9381;54.244;10.074;2023-11-21T16:46:12;101902.50;;;7.89;87.67
18504;BME280;9381;54.244;10.074;2023-11-21T16:51:17;101906.34;;;7.86;87.25
18504;BME280;9381;54.244;10.074;2023-11-21T16:56:17;101915.47;;;7.85;86.48
18504;BME280;9381;54.244;10.074;2023-11-21T17:01:18;101917.84;;;7.64;87.35
18504;BME280;9381;54.244;10.074;2023-11-21T17:06:19;101923.88;;;7.74;86.94
18504;BME280;9381;54.244;10.074;2023-11-21T17:11:19;101925.41;;;7.69;86.93
18504;BME280;9381;54.244;10.074;2023-11-21T17:16:20;101931.31;;;7.72;86.52
18504;BME280;9381;54.244;10.074;2023-11-21T17:21:21;101945.78;;;7.55;88.54
18504;BME280;9381;54.244;10.074;2023-11-21T17:26:22;101951.66;;;7.51;88.57
18504;BME280;9381;54.244;10.074;2023-11-21T17:31:22;101950.50;;;7.53;89.29
18504;BME280;9381;54.244;10.074;2023-11-21T17:36:22;101963.25;;;7.59;89.06
18504;BME280;9381;54.244;10.074;2023-11-21T17:41:24;101976.91;;;7.58;88.61
18504;BME280;9381;54.244;10.074;2023-11-21T17:46:24;102002.63;;;7.52;89.00
18504;BME280;9381;54.244;10.074;2023-11-21T17:51:25;102015.41;;;7.42;89.76
18504;BME280;9381;54.244;10.074;2023-11-21T17:56:25;102015.75;;;7.39;89.11
18504;BME280;9381;54.244;10.074;2023-11-21T18:01:25;102028.16;;;7.32;89.49
18504;BME280;9381;54.244;10.074;2023-11-21T18:06:33;102037.88;;;7.25;89.35
18504;BME280;9381;54.244;10.074;2023-11-21T18:11:33;102049.66;;;7.24;89.58
18504;BME280;9381;54.244;10.074;2023-11-21T18:16:33;102055.75;;;7.26;89.73
18504;BME280;9381;54.244;10.074;2023-11-21T18:21:34;102053.53;;;7.30;90.56
18504;BME280;9381;54.244;10.074;2023-11-21T18:26:37;102063.50;;;7.37;89.70
18504;BME280;9381;54.244;10.074;2023-11-21T18:31:41;102068.56;;;7.40;90.37
18504;BME280;9381;54.244;10.074;2023-11-21T18:36:43;102085.38;;;7.42;91.84
18504;BME280;9381;54.244;10.074;2023-11-21T18:41:45;102080.06;;;7.58;92.68
18504;BME280;9381;54.244;10.074;2023-11-21T18:46:45;102077.03;;;7.69;91.66
18504;BME280;9381;54.244;10.074;2023-11-21T18:51:46;102083.63;;;7.67;93.00
18504;BME280;9381;54.244;10.074;2023-11-21T18:56:48;102081.09;;;7.73;93.28
18504;BME280;9381;54.244;10.074;2023-11-21T19:01:48;102095.91;;;7.77;93.37
18504;BME280;9381;54.244;10.074;2023-11-21T19:06:48;102101.97;;;7.87;92.65
18504;BME280;9381;54.244;10.074;2023-11-21T19:11:49;102108.91;;;7.98;91.87
18504;BME280;9381;54.244;10.074;2023-11-21T19:16:49;102116.66;;;8.01;91.24
18504;BME280;9381;54.244;10.074;2023-11-21T19:21:49;102111.94;;;8.03;90.20
18504;BME280;9381;54.244;10.074;2023-11-21T19:26:50;102122.41;;;8.06;89.67
18504;BME280;9381;54.244;10.074;2023-11-21T19:31:50;102132.19;;;8.15;89.79
18504;BME280;9381;54.244;10.074;2023-11-21T19:36:50;102139.91;;;8.10;89.43
18504;BME280;9381;54.244;10.074;2023-11-21T19:41:51;102140.75;;;8.10;90.74
18504;BME280;9381;54.244;10.074;2023-11-21T19:46:52;102141.38;;;7.88;90.53
18504;BME280;9381;54.244;10.074;2023-11-21T19:51:52;102141.91;;;7.92;89.54
18504;BME280;9381;54.244;10.074;2023-11-21T19:56:52;102161.28;;;7.95;90.75
18504;BME280;9381;54.244;10.074;2023-11-21T20:01:52;102167.66;;;7.86;91.14
18504;BME280;9381;54.244;10.074;2023-11-21T20:06:53;102168.69;;;7.93;90.97
18504;BME280;9381;54.244;10.074;2023-11-21T20:11:54;102176.91;;;7.84;91.48
18504;BME280;9381;54.244;10.074;2023-11-21T20:16:58;102183.13;;;7.84;91.32
18504;BME280;9381;54.244;10.074;2023-11-21T20:21:59;102194.41;;;7.80;90.19
18504;BME280;9381;54.244;10.074;2023-11-21T20:26:59;102183.63;;;7.80;89.83
18504;BME280;9381;54.244;10.074;2023-11-21T20:32:03;102196.06;;;7.73;90.48
18504;BME280;9381;54.244;10.074;2023-11-21T20:37:05;102206.13;;;7.63;90.68
18504;BME280;9381;54.244;10.074;2023-11-21T20:42:06;102217.41;;;7.66;90.39
18504;BME280;9381;54.244;10.074;2023-11-21T20:47:06;102216.25;;;7.69;90.04
18504;BME280;9381;54.244;10.074;2023-11-21T20:52:07;102219.25;;;7.58;89.81
18504;BME280;9381;54.244;10.074;2023-11-21T20:57:07;102218.28;;;7.67;89.47
18504;BME280;9381;54.244;10.074;2023-11-21T21:02:09;102218.56;;;7.64;88.90
18504;BME280;9381;54.244;10.074;2023-11-21T21:07:10;102237.56;;;7.54;89.08
18504;BME280;9381;54.244;10.074;2023-11-21T21:12:11;102237.34;;;7.48;89.13
18504;BME280;9381;54.244;10.074;2023-11-21T21:17:11;102235.31;;;7.42;88.83
18504;BME280;9381;54.244;10.074;2023-11-21T21:22:11;102234.03;;;7.28;88.10
18504;BME280;9381;54.244;10.074;2023-11-21T21:27:12;102242.69;;;7.14;88.05
18504;BME280;9381;54.244;10.074;2023-11-21T21:32:12;102251.34;;;7.00;87.68
18504;BME280;9381;54.244;10.074;2023-11-21T21:37:12;102245.91;;;6.92;87.41
18504;BME280;9381;54.244;10.074;2023-11-21T21:42:13;102247.50;;;6.85;87.13
18504;BME280;9381;54.244;10.074;2023-11-21T21:47:14;102255.38;;;6.79;87.41
18504;BME280;9381;54.244;10.074;2023-11-21T21:52:14;102270.28;;;6.73;87.82
18504;BME280;9381;54.244;10.074;2023-11-21T21:57:14;102267.75;;;6.72;87.82
18504;BME280;9381;54.244;10.074;2023-11-21T22:02:14;102270.88;;;6.67;87.76
18504;BME280;9381;54.244;10.074;2023-11-21T22:07:15;102286.47;;;6.64;87.78
18504;BME280;9381;54.244;10.074;2023-11-21T22:12:15;102300.94;;;6.63;90.05
18504;BME280;9381;54.244;10.074;2023-11-21T22:17:15;102293.63;;;6.90;88.19
18504;BME280;9381;54.244;10.074;2023-11-21T22:22:16;102289.84;;;7.01;87.16
18504;BME280;9381;54.244;10.074;2023-11-21T22:27:18;102296.50;;;7.14;86.59
18504;BME280;9381;54.244;10.074;2023-11-21T22:32:18;102297.97;;;7.26;85.89
18504;BME280;9381;54.244;10.074;2023-11-21T22:37:19;102301.34;;;7.28;86.21
18504;BME280;9381;54.244;10.074;2023-11-21T22:42:19;102317.53;;;7.36;86.80
18504;BME280;9381;54.244;10.074;2023-11-21T22:47:20;102307.53;;;7.29;86.47
18504;BME280;9381;54.244;10.074;2023-11-21T22:52:21;102297.91;;;7.18;86.65
18504;BME280;9381;54.244;10.074;2023-11-21T22:57:23;102309.22;;;6.87;86.83
18504;BME280;9381;54.244;10.074;2023-11-21T23:02:23;102313.53;;;6.62;86.92
18504;BME280;9381;54.244;10.074;2023-11-21T23:07:24;102325.66;;;6.49;87.54
18504;BME280;9381;54.244;10.074;2023-11-21T23:12:24;102318.06;;;6.44;87.35
18504;BME280;9381;54.244;10.074;2023-11-21T23:17:25;102321.66;;;6.35;87.55
18504;BME280;9381;54.244;10.074;2023-11-21T23:22:27;102328.31;;;6.31;86.96
18504;BME280;9381;54.244;10.074;2023-11-21T23:27:28;102312.28;;;6.12;87.19
18504;BME280;9381;54.244;10.074;2023-11-21T23:32:28;102320.25;;;6.04;87.59
18504;BME280;9381;54.244;10.074;2023-11-21T23:37:28;102329.09;;;5.87;87.51
18504;BME280;9381;54.244;10.074;2023-11-21T23:42:29;102334.78;;;5.84;87.48
18504;BME280;9381;54.244;10.074;2023-11-21T23:47:29;102345.81;;;5.81;88.01
18504;BME280;9381;54.244;10.074;2023-11-21T23:52:29;102350.75;;;5.86;89.08
18504;BME280;9381;54.244;10.074;2023-11-21T23:57:30;102345.97;;;5.70;88.59
